createdAt,value
2022-10-16T00:00:39.376Z,8.85
2022-10-16T00:03:07.001Z,7.28
2022-10-16T00:05:34.463Z,7.72
2022-10-16T00:08:01.223Z,9.05
2022-10-16T00:10:27.864Z,9.00
2022-10-16T00:12:54.474Z,11.43
2022-10-16T00:15:21.200Z,7.95
2022-10-16T00:17:47.834Z,9.13
2022-10-16T00:20:14.416Z,8.93
2022-10-16T00:22:41.226Z,7.72
2022-10-16T00:25:08.189Z,11.90
2022-10-16T00:27:35.307Z,10.43
2022-10-16T00:30:02.000Z,14.32
2022-10-16T00:32:28.998Z,5.68
2022-10-16T00:34:55.764Z,6.15
2022-10-16T00:37:22.368Z,11.45
2022-10-16T00:39:49.004Z,7.18
2022-10-16T00:42:19.480Z,11.15
2022-10-16T00:44:53.470Z,8.70
2022-10-16T00:47:25.226Z,6.97
2022-10-16T00:49:56.954Z,7.72
2022-10-16T00:52:23.744Z,10.25
2022-10-16T00:54:51.824Z,13.50
2022-10-16T00:57:18.592Z,7.55
2022-10-16T00:59:46.062Z,8.95
2022-10-16T01:02:15.955Z,7.38
2022-10-16T01:04:53.326Z,12.63
2022-10-16T01:07:27.430Z,7.80
2022-10-16T01:10:00.416Z,10.68
2022-10-16T01:12:44.234Z,5.80
2022-10-16T01:15:29.040Z,9.88
2022-10-16T01:20:41.048Z,6.50
2022-10-16T01:23:26.241Z,8.68
2022-10-16T01:26:31.403Z,8.07
2022-10-16T01:29:18.044Z,8.05
2022-10-16T01:31:51.414Z,9.60
2022-10-16T01:34:24.904Z,7.50
2022-10-16T01:36:57.440Z,9.20
2022-10-16T01:39:29.302Z,9.90
2022-10-16T01:44:32.184Z,10.35
2022-10-16T01:47:00.445Z,10.27
2022-10-16T01:49:32.290Z,7.47
2022-10-16T01:54:34.414Z,11.85
2022-10-16T01:57:02.296Z,9.70
2022-10-16T01:59:32.784Z,7.00
2022-10-16T02:02:07.711Z,7.35
2022-10-16T02:04:39.555Z,8.90
2022-10-16T02:09:35.584Z,6.75
2022-10-16T02:12:10.461Z,7.18
2022-10-16T02:14:39.430Z,5.85
2022-10-16T02:17:15.232Z,10.65
2022-10-16T02:19:42.937Z,8.02
2022-10-16T02:22:16.146Z,7.88
2022-10-16T02:24:51.564Z,11.02
2022-10-16T02:27:43.202Z,5.88
2022-10-16T02:30:20.495Z,8.75
2022-10-16T02:32:50.308Z,12.00
2022-10-16T02:35:19.743Z,9.45
2022-10-16T02:37:47.896Z,12.40
2022-10-16T02:40:14.890Z,7.18
2022-10-16T02:42:42.051Z,5.90
2022-10-16T02:45:11.292Z,7.15
2022-10-16T02:47:38.316Z,6.05
2022-10-16T02:50:05.462Z,8.80
2022-10-16T02:52:32.025Z,8.77
2022-10-16T02:54:58.610Z,10.32
2022-10-16T02:57:25.553Z,8.13
2022-10-16T02:59:52.472Z,6.20
2022-10-16T03:02:19.304Z,9.70
2022-10-16T03:04:45.925Z,7.53
2022-10-16T03:07:12.596Z,5.95
2022-10-16T03:09:39.201Z,8.48
2022-10-16T03:12:06.040Z,11.57
2022-10-16T03:14:32.694Z,9.43
2022-10-16T03:16:59.285Z,13.20
2022-10-16T03:19:25.830Z,6.35
2022-10-16T03:21:52.512Z,7.82
2022-10-16T03:24:19.162Z,9.75
2022-10-16T03:26:45.838Z,6.30
2022-10-16T03:29:12.391Z,10.02
2022-10-16T03:31:38.993Z,9.88
2022-10-16T03:34:05.643Z,8.57
2022-10-16T03:36:32.308Z,6.10
2022-10-16T03:38:58.924Z,7.38
2022-10-16T03:41:25.530Z,8.32
2022-10-16T03:43:52.197Z,6.10
2022-10-16T03:46:18.778Z,9.60
2022-10-16T03:48:45.344Z,15.35
2022-10-16T03:51:11.919Z,8.93
2022-10-16T03:53:38.595Z,7.32
2022-10-16T03:56:05.406Z,6.93
2022-10-16T03:58:32.045Z,7.50
2022-10-16T04:00:58.676Z,12.15
2022-10-16T04:03:25.392Z,12.50
2022-10-16T04:05:52.125Z,15.25
2022-10-16T04:08:19.405Z,11.30
2022-10-16T04:10:46.368Z,7.95
2022-10-16T04:13:13.571Z,10.13
2022-10-16T04:15:40.320Z,9.45
2022-10-16T04:18:07.232Z,9.02
2022-10-16T04:20:34.684Z,10.48
2022-10-16T04:23:01.586Z,11.13
2022-10-16T04:25:28.334Z,9.35
2022-10-16T04:27:55.310Z,8.25
2022-10-16T04:30:23.911Z,11.48
2022-10-16T04:32:52.272Z,12.80
2022-10-16T04:35:20.506Z,11.02
2022-10-16T04:37:47.448Z,9.32
2022-10-16T04:40:14.597Z,12.07
2022-10-16T04:42:41.786Z,6.95
2022-10-16T04:45:12.020Z,8.93
2022-10-16T04:47:41.585Z,12.63
2022-10-16T04:50:08.659Z,7.53
2022-10-16T04:55:07.273Z,7.32
2022-10-16T04:57:34.452Z,8.35
2022-10-16T05:00:01.519Z,6.68
2022-10-16T05:02:28.260Z,7.38
2022-10-16T05:04:54.900Z,12.20
2022-10-16T05:07:21.545Z,7.38
2022-10-16T05:09:48.172Z,11.70
2022-10-16T05:12:14.806Z,7.60
2022-10-16T05:14:41.884Z,12.68
2022-10-16T05:17:08.474Z,9.05
2022-10-16T05:19:35.142Z,8.13
2022-10-16T05:22:01.774Z,8.57
2022-10-16T05:24:28.404Z,9.52
2022-10-16T05:26:55.063Z,12.82
2022-10-16T05:29:22.104Z,12.43
2022-10-16T05:31:52.887Z,7.78
2022-10-16T05:34:19.761Z,8.82
2022-10-16T05:36:47.385Z,7.95
2022-10-16T05:39:16.053Z,8.07
2022-10-16T05:41:42.841Z,14.02
2022-10-16T05:44:09.641Z,11.80
2022-10-16T05:46:36.253Z,9.48
2022-10-16T05:49:03.158Z,7.47
2022-10-16T05:51:29.793Z,9.15
2022-10-16T05:53:56.443Z,8.27
2022-10-16T05:56:23.033Z,9.02
2022-10-16T05:58:49.609Z,8.32
2022-10-16T06:01:21.792Z,9.50
2022-10-16T06:03:48.577Z,8.98
2022-10-16T06:06:21.326Z,7.30
2022-10-16T06:08:49.075Z,7.53
2022-10-16T06:11:18.223Z,9.88
2022-10-16T06:13:47.305Z,8.63
2022-10-16T06:16:14.436Z,10.98
2022-10-16T06:18:41.435Z,6.72
2022-10-16T06:21:29.210Z,10.57
2022-10-16T06:23:57.543Z,6.78
2022-10-16T06:26:27.129Z,11.57
2022-10-16T06:28:56.390Z,9.40
2022-10-16T06:31:23.865Z,10.25
2022-10-16T06:33:54.185Z,9.80
2022-10-16T06:36:21.774Z,7.82
2022-10-16T06:38:48.436Z,7.57
2022-10-16T06:41:18.794Z,7.50
2022-10-16T06:43:46.553Z,8.52
2022-10-16T06:46:16.404Z,7.80
2022-10-16T06:48:43.250Z,8.82
2022-10-16T06:51:14.429Z,10.18
2022-10-16T06:54:01.896Z,7.60
2022-10-16T06:56:31.419Z,6.85
2022-10-16T06:58:58.067Z,11.07
2022-10-16T07:01:26.738Z,12.25
2022-10-16T07:03:53.820Z,7.35
2022-10-16T07:06:23.609Z,9.00
2022-10-16T07:08:50.782Z,8.10
2022-10-16T07:11:22.750Z,12.35
2022-10-16T07:13:54.390Z,10.57
2022-10-16T07:16:25.842Z,12.98
2022-10-16T07:18:55.380Z,8.25
2022-10-16T07:21:24.063Z,18.15
2022-10-16T07:24:00.273Z,8.88
2022-10-16T07:26:28.365Z,7.80
2022-10-16T07:28:55.340Z,7.00
2022-10-16T07:31:22.366Z,7.90
2022-10-16T07:33:49.802Z,7.47
2022-10-16T07:36:18.893Z,8.07
2022-10-16T07:38:47.143Z,8.80
2022-10-16T07:41:17.238Z,8.25
2022-10-16T07:43:51.640Z,11.80
2022-10-16T07:46:20.300Z,7.38
2022-10-16T07:48:48.267Z,9.57
2022-10-16T07:51:16.774Z,10.38
2022-10-16T07:53:43.365Z,7.70
2022-10-16T07:56:10.382Z,7.45
2022-10-16T07:58:38.265Z,5.35
2022-10-16T08:01:10.334Z,7.30
2022-10-16T08:03:37.417Z,9.18
2022-10-16T08:06:05.303Z,6.60
2022-10-16T08:08:32.077Z,5.50
2022-10-16T08:10:58.694Z,8.50
2022-10-16T08:13:25.387Z,6.03
2022-10-16T08:15:51.928Z,5.47
2022-10-16T08:18:19.079Z,6.10
2022-10-16T08:21:00.027Z,10.38
2022-10-16T08:23:27.767Z,6.50
2022-10-16T08:25:55.289Z,4.28
2022-10-16T08:28:23.031Z,9.15
2022-10-16T08:30:49.718Z,6.47
2022-10-16T08:33:16.386Z,5.70
2022-10-16T08:35:43.014Z,7.03
2022-10-16T08:38:10.270Z,5.00
2022-10-16T08:40:38.294Z,6.78
2022-10-16T08:43:15.382Z,5.30
2022-10-16T08:46:20.374Z,7.38
2022-10-16T08:48:52.727Z,8.63
2022-10-16T08:51:25.923Z,8.90
2022-10-16T08:53:56.504Z,5.80
2022-10-16T08:56:24.347Z,8.82
2022-10-16T08:58:55.188Z,6.60
2022-10-16T09:01:36.467Z,5.80
2022-10-16T09:04:29.092Z,9.20
2022-10-16T09:07:26.452Z,6.85
2022-10-16T09:10:01.980Z,7.97
2022-10-16T09:12:43.582Z,6.10
2022-10-16T09:15:25.675Z,7.28
2022-10-16T09:18:15.886Z,5.57
2022-10-16T09:21:15.456Z,10.23
2022-10-16T09:23:42.103Z,6.93
2022-10-16T09:26:13.893Z,10.65
2022-10-16T09:28:41.314Z,4.38
2022-10-16T09:31:17.033Z,8.07
2022-10-16T09:33:46.320Z,9.07
2022-10-16T09:36:14.735Z,6.07
2022-10-16T09:38:41.583Z,6.53
2022-10-16T09:41:24.757Z,8.32
2022-10-16T09:43:59.995Z,8.32
2022-10-16T09:46:34.099Z,6.00
2022-10-16T09:49:02.897Z,6.93
2022-10-16T09:51:37.674Z,6.10
2022-10-16T09:54:16.801Z,5.97
2022-10-16T09:56:46.560Z,6.72
2022-10-16T09:59:16.160Z,5.53
2022-10-16T10:01:51.900Z,6.13
2022-10-16T10:04:23.675Z,5.82
2022-10-16T10:06:55.330Z,6.78
2022-10-16T10:11:54.350Z,8.60
2022-10-16T10:14:39.601Z,8.40
2022-10-16T10:17:06.063Z,7.28
2022-10-16T10:19:51.031Z,7.35
2022-10-16T10:22:33.110Z,8.02
2022-10-16T10:25:14.750Z,7.95
2022-10-16T10:28:19.272Z,11.55
2022-10-16T10:31:04.179Z,7.35
2022-10-16T10:33:54.779Z,6.57
2022-10-16T10:36:39.041Z,6.68
2022-10-16T10:42:31.186Z,10.23
2022-10-16T10:45:17.997Z,9.20
2022-10-16T10:48:14.377Z,8.85
2022-10-16T10:50:46.595Z,6.60
2022-10-16T10:53:25.937Z,7.93
2022-10-16T10:56:05.617Z,7.28
2022-10-16T10:59:00.251Z,7.05
2022-10-16T11:01:47.536Z,4.88
2022-10-16T11:04:14.146Z,6.10
2022-10-16T11:06:45.599Z,8.50
2022-10-16T11:09:19.056Z,7.13
2022-10-16T11:11:50.000Z,6.68
2022-10-16T11:14:22.409Z,10.55
2022-10-16T11:17:01.789Z,5.65
2022-10-16T11:19:31.139Z,7.20
2022-10-16T11:22:06.020Z,15.60
2022-10-16T11:24:32.584Z,8.68
2022-10-16T11:27:05.502Z,6.47
2022-10-16T11:29:35.930Z,10.80
2022-10-16T11:32:35.212Z,7.15
2022-10-16T11:35:15.307Z,7.47
2022-10-16T11:37:45.581Z,6.10
2022-10-16T11:40:44.563Z,10.93
2022-10-16T11:43:16.376Z,13.85
2022-10-16T11:46:06.477Z,6.60
2022-10-16T11:48:46.625Z,9.70
2022-10-16T11:51:39.913Z,10.65
2022-10-16T11:54:28.098Z,6.82
2022-10-16T11:57:00.560Z,7.90
2022-10-16T11:59:27.065Z,8.77
2022-10-16T12:02:15.679Z,9.85
2022-10-16T12:04:51.921Z,6.47
2022-10-16T12:07:28.918Z,7.72
2022-10-16T12:09:57.299Z,5.47
2022-10-16T12:12:38.611Z,8.95
2022-10-16T12:18:25.995Z,9.32
2022-10-16T12:21:08.727Z,8.98
2022-10-16T12:23:47.520Z,10.75
2022-10-16T12:26:14.466Z,5.90
2022-10-16T12:28:41.735Z,8.30
2022-10-16T12:31:13.744Z,9.02
2022-10-16T12:34:01.057Z,13.32
2022-10-16T12:36:34.464Z,10.73
2022-10-16T12:39:02.239Z,8.50
2022-10-16T12:41:40.813Z,14.57
2022-10-16T12:44:24.578Z,11.88
2022-10-16T12:46:52.003Z,12.88
2022-10-16T12:49:39.650Z,10.43
2022-10-16T12:52:24.942Z,7.93
2022-10-16T12:54:52.175Z,6.70
2022-10-16T12:58:01.058Z,6.88
2022-10-16T13:00:51.989Z,5.80
2022-10-16T13:03:43.559Z,10.98
2022-10-16T13:06:35.481Z,9.57
2022-10-16T13:09:20.212Z,10.10
2022-10-16T13:11:58.764Z,9.63
2022-10-16T13:14:25.435Z,10.82
2022-10-16T13:17:14.602Z,13.82
2022-10-16T13:19:49.854Z,8.90
2022-10-16T13:22:40.214Z,9.55
2022-10-16T13:25:39.531Z,6.78
2022-10-16T13:28:11.352Z,10.57
2022-10-16T13:30:42.680Z,8.38
2022-10-16T13:35:51.565Z,5.82
2022-10-16T13:38:22.203Z,8.45
2022-10-16T13:41:03.754Z,8.77
2022-10-16T13:43:43.576Z,6.20
2022-10-16T13:46:16.534Z,6.95
2022-10-16T13:48:43.904Z,5.80
2022-10-16T13:51:19.044Z,7.90
2022-10-16T13:53:46.760Z,7.63
2022-10-16T13:56:20.596Z,8.32
2022-10-16T13:58:48.371Z,6.30
2022-10-16T14:01:19.337Z,10.27
2022-10-16T14:03:47.711Z,7.57
2022-10-16T14:06:22.959Z,8.77
2022-10-16T14:08:55.598Z,13.10
2022-10-16T14:11:27.148Z,9.77
2022-10-16T14:13:54.608Z,10.68
2022-10-16T14:16:24.554Z,14.35
2022-10-16T14:19:03.448Z,8.38
2022-10-16T14:21:30.375Z,13.93
2022-10-16T14:23:57.315Z,9.50
2022-10-16T14:26:26.835Z,10.65
2022-10-16T14:29:15.469Z,7.38
2022-10-16T14:31:42.886Z,10.13
2022-10-16T14:34:28.445Z,8.80
2022-10-16T14:37:02.022Z,8.43
2022-10-16T14:39:29.357Z,10.18
2022-10-16T14:41:58.716Z,13.95
2022-10-16T14:44:30.914Z,9.40
2022-10-16T14:46:58.166Z,7.40
2022-10-16T14:49:25.261Z,9.45
2022-10-16T14:51:53.065Z,9.57
2022-10-16T14:54:20.568Z,16.05
2022-10-16T14:56:56.662Z,9.00
2022-10-16T14:59:33.050Z,8.13
2022-10-16T15:01:59.839Z,8.15
2022-10-16T15:04:26.468Z,6.40
2022-10-16T15:06:53.169Z,6.80
2022-10-16T15:09:19.850Z,7.65
2022-10-16T15:11:47.600Z,10.90
2022-10-16T15:16:47.060Z,8.23
2022-10-16T15:19:13.805Z,7.20
2022-10-16T15:21:41.116Z,9.93
2022-10-16T15:24:15.335Z,9.98
2022-10-16T15:26:46.943Z,14.85
2022-10-16T15:29:14.072Z,11.23
2022-10-16T15:31:43.528Z,9.38
2022-10-16T15:34:11.190Z,10.90
2022-10-16T15:36:39.382Z,12.35
2022-10-16T15:39:17.444Z,12.18
2022-10-16T15:41:46.520Z,10.75
2022-10-16T15:44:13.161Z,13.75
2022-10-16T15:46:39.842Z,16.77
2022-10-16T15:49:07.013Z,11.85
2022-10-16T15:51:35.068Z,10.25
2022-10-16T15:54:02.874Z,12.68
2022-10-16T15:56:34.170Z,20.40
2022-10-16T15:59:03.946Z,12.65
2022-10-16T16:01:39.012Z,8.25
2022-10-16T16:04:15.232Z,14.73
2022-10-16T16:06:52.801Z,16.35
2022-10-16T16:09:20.528Z,14.40
2022-10-16T16:11:48.524Z,15.82
2022-10-16T16:14:16.666Z,28.13
2022-10-16T16:16:44.724Z,20.33
2022-10-16T16:19:11.914Z,17.58
2022-10-16T16:21:42.262Z,22.38
2022-10-16T16:24:09.917Z,14.82
2022-10-16T16:26:44.544Z,11.38
2022-10-16T16:29:14.170Z,19.10
2022-10-16T16:31:43.088Z,12.93
2022-10-16T16:34:10.020Z,16.02
2022-10-16T16:36:37.980Z,12.60
2022-10-16T16:39:05.905Z,11.52
2022-10-16T16:41:33.950Z,11.73
2022-10-16T16:44:14.415Z,14.70
2022-10-16T16:46:44.392Z,12.23
2022-10-16T16:49:13.829Z,16.75
2022-10-16T16:51:43.062Z,12.70
2022-10-16T16:54:11.698Z,11.15
2022-10-16T16:56:43.549Z,12.02
2022-10-16T17:01:49.130Z,13.63
2022-10-16T17:04:19.902Z,15.23
2022-10-16T17:06:46.777Z,17.08
2022-10-16T17:09:14.879Z,19.63
2022-10-16T17:11:45.535Z,11.75
2022-10-16T17:14:12.647Z,12.90
2022-10-16T17:16:41.238Z,13.82
2022-10-16T17:19:12.875Z,19.63
2022-10-16T17:21:46.379Z,13.77
2022-10-16T17:24:14.705Z,15.48
2022-10-16T17:26:48.751Z,11.63
2022-10-16T17:29:18.903Z,14.82
2022-10-16T17:31:49.980Z,14.10
2022-10-16T17:34:16.919Z,16.67
2022-10-16T17:36:46.915Z,17.95
2022-10-16T17:39:19.785Z,14.68
2022-10-16T17:41:52.706Z,19.38
2022-10-16T17:44:22.262Z,12.23
2022-10-16T17:46:53.950Z,19.63
2022-10-16T17:51:55.450Z,18.88
2022-10-16T17:54:22.166Z,18.25
2022-10-16T17:56:50.164Z,17.05
2022-10-16T17:59:17.945Z,14.27
2022-10-16T18:01:46.431Z,14.73
2022-10-16T18:04:16.276Z,19.88
2022-10-16T18:06:44.950Z,16.45
2022-10-16T18:09:18.059Z,23.58
2022-10-16T18:11:46.095Z,18.63
2022-10-16T18:14:15.623Z,16.70
2022-10-16T18:16:43.872Z,22.35
2022-10-16T18:19:12.104Z,23.85
2022-10-16T18:21:40.539Z,19.58
2022-10-16T18:24:09.679Z,21.58
2022-10-16T18:26:38.502Z,17.67
2022-10-16T18:29:06.641Z,18.25
2022-10-16T18:31:37.753Z,20.38
2022-10-16T18:34:07.380Z,16.73
2022-10-16T18:36:35.746Z,16.48
2022-10-16T18:39:09.493Z,15.07
2022-10-16T18:41:40.393Z,20.75
2022-10-16T18:44:08.286Z,16.23
2022-10-16T18:46:34.975Z,17.40
2022-10-16T18:49:01.866Z,23.70
2022-10-16T18:51:32.579Z,18.60
2022-10-16T18:54:02.057Z,19.95
2022-10-16T18:56:30.620Z,18.50
2022-10-16T18:59:00.012Z,18.80
2022-10-16T19:01:29.834Z,18.20
2022-10-16T19:03:58.925Z,14.48
2022-10-16T19:06:27.160Z,18.13
2022-10-16T19:08:55.805Z,15.35
2022-10-16T19:11:24.661Z,21.13
2022-10-16T19:13:52.396Z,18.33
2022-10-16T19:16:22.870Z,15.35
2022-10-16T19:18:52.297Z,13.38
2022-10-16T19:21:19.293Z,18.67
2022-10-16T19:23:46.185Z,21.02
2022-10-16T19:26:16.102Z,17.20
2022-10-16T19:28:43.948Z,14.98
2022-10-16T19:31:13.946Z,13.10
2022-10-16T19:33:41.320Z,14.02
2022-10-16T19:36:12.295Z,20.10
2022-10-16T19:38:42.802Z,13.57
2022-10-16T19:41:14.955Z,22.48
2022-10-16T19:43:42.287Z,19.20
2022-10-16T19:46:11.179Z,20.48
2022-10-16T19:48:38.498Z,19.08
2022-10-16T19:51:05.322Z,20.50
2022-10-16T19:53:32.379Z,22.00
2022-10-16T19:55:59.806Z,26.60
2022-10-16T19:58:27.735Z,23.63
2022-10-16T20:00:55.861Z,29.58
2022-10-16T20:03:22.507Z,24.70
2022-10-16T20:05:55.067Z,19.73
2022-10-16T20:08:24.010Z,23.30
2022-10-16T20:10:55.573Z,19.63
2022-10-16T20:13:22.574Z,16.48
2022-10-16T20:15:50.602Z,23.90
2022-10-16T20:18:17.401Z,19.90
2022-10-16T20:20:49.395Z,19.02
2022-10-16T20:23:15.983Z,16.73
2022-10-16T20:25:45.921Z,17.02
2022-10-16T20:28:15.848Z,11.50
2022-10-16T20:30:45.326Z,17.63
2022-10-16T20:33:12.687Z,14.10
2022-10-16T20:35:47.005Z,14.48
2022-10-16T20:38:14.738Z,22.13
2022-10-16T20:40:44.167Z,17.30
2022-10-16T20:43:16.292Z,15.80
2022-10-16T20:45:43.559Z,18.10
2022-10-16T20:48:11.449Z,17.15
2022-10-16T20:50:38.607Z,24.73
2022-10-16T20:53:05.789Z,27.80
2022-10-16T20:55:35.911Z,25.35
2022-10-16T20:58:02.908Z,19.42
2022-10-16T21:00:29.563Z,18.55
2022-10-16T21:02:57.345Z,20.83
2022-10-16T21:05:24.119Z,24.20
2022-10-16T21:07:50.735Z,19.35
2022-10-16T21:10:17.639Z,20.30
2022-10-16T21:12:47.916Z,19.08
2022-10-16T21:15:15.904Z,20.63
2022-10-16T21:17:42.610Z,26.58
2022-10-16T21:20:09.553Z,21.95
2022-10-16T21:22:36.281Z,23.85
2022-10-16T21:25:02.883Z,20.52
2022-10-16T21:27:29.450Z,24.95
2022-10-16T21:29:57.090Z,26.02
2022-10-16T21:32:25.398Z,20.08
2022-10-16T21:34:53.901Z,23.15
2022-10-16T21:37:21.561Z,20.85
2022-10-16T21:39:48.111Z,19.42
2022-10-16T21:42:16.165Z,15.38
2022-10-16T21:44:42.761Z,16.85
2022-10-16T21:47:10.564Z,14.35
2022-10-16T21:49:38.481Z,16.30
2022-10-16T21:52:06.840Z,22.30
2022-10-16T21:54:34.657Z,15.27
2022-10-16T21:59:35.296Z,12.52
2022-10-16T22:02:03.382Z,18.52
2022-10-16T22:04:31.236Z,16.73
2022-10-16T22:06:59.928Z,23.15
2022-10-16T22:09:27.488Z,18.80
2022-10-16T22:11:55.470Z,11.68
2022-10-16T22:14:23.176Z,13.50
2022-10-16T22:16:51.366Z,18.80
2022-10-16T22:19:20.427Z,23.40
2022-10-16T22:21:49.249Z,15.45
2022-10-16T22:24:17.012Z,20.58
2022-10-16T22:26:45.554Z,15.23
2022-10-16T22:29:14.402Z,15.05
2022-10-16T22:31:43.311Z,13.98
2022-10-16T22:34:12.382Z,12.70
2022-10-16T22:36:40.337Z,13.90
2022-10-16T22:39:08.224Z,15.77
2022-10-16T22:41:36.290Z,13.73
2022-10-16T22:44:04.331Z,14.25
2022-10-16T22:46:32.379Z,12.63
2022-10-16T22:49:00.244Z,15.90
2022-10-16T22:51:28.144Z,15.85
2022-10-16T22:53:57.964Z,17.42
2022-10-16T22:56:26.572Z,15.32
2022-10-16T22:58:53.350Z,12.38
2022-10-16T23:01:30.027Z,14.50
2022-10-16T23:03:57.789Z,11.30
2022-10-16T23:06:25.587Z,14.73
2022-10-16T23:09:03.591Z,14.00
2022-10-16T23:11:33.331Z,10.63
2022-10-16T23:14:00.969Z,14.43
2022-10-16T23:16:27.626Z,13.13
2022-10-16T23:18:54.350Z,13.07
2022-10-16T23:21:24.971Z,10.20
2022-10-16T23:23:54.281Z,11.80
2022-10-16T23:26:25.148Z,16.05
2022-10-16T23:28:53.481Z,12.10
2022-10-16T23:31:21.545Z,11.23
2022-10-16T23:33:49.351Z,12.43
2022-10-16T23:36:19.582Z,14.02
2022-10-16T23:38:47.099Z,15.55
2022-10-16T23:41:16.669Z,10.77
2022-10-16T23:43:45.238Z,13.38
2022-10-16T23:46:14.375Z,20.27
2022-10-16T23:48:42.691Z,11.40
2022-10-16T23:51:10.373Z,13.48
2022-10-16T23:53:38.881Z,13.52
2022-10-16T23:56:06.932Z,13.88
2022-10-16T23:58:34.659Z,14.52
